This is the latest recevied weather packets stored in our database for station/object VK5TRM-13. If no packets are shown the sender has not sent any weather packets the latest 10 day(s).
| Time | Temp. | Humidity | Pressure | Rain* | Wind** | Luminosity | Snow |
|---|---|---|---|---|---|---|---|
| 1778041805 | 18.89° C | 51% | 1021.4 hPa | 0 mm | - | - | - |
| 1778040905 | 18.89° C | 51% | 1021.4 hPa | 0 mm | - | - | - |
| 1778040004 | 18.89° C | 50% | 1021.8 hPa | 0 mm | - | - | - |
| 1778039104 | 18.89° C | 50% | 1021.8 hPa | 0 mm | - | - | - |
| 1778038205 | 18.89° C | 51% | 1022.1 hPa | 0 mm | - | - | - |
| 1778037305 | 18.89° C | 51% | 1022.1 hPa | 0 mm | - | - | - |
| 1778036405 | 18.33° C | 53% | 1022.8 hPa | 0 mm | - | - | - |
| 1778035505 | 18.33° C | 53% | 1022.8 hPa | 0 mm | - | - | - |
| 1778034604 | 17.78° C | 56% | 1023.2 hPa | 0 mm | - | - | - |
| 1778033705 | 17.78° C | 56% | 1023.2 hPa | 0 mm | - | - | - |
| 1778032805 | 16.11° C | 66% | 1023.7 hPa | 0 mm | - | - | - |
| 1778031905 | 11.67° C | 91% | 1024.3 hPa | 0.51 mm | - | - | - |
| 1778024704 | 11.67° C | 91% | 1024.3 hPa | 0.51 mm | - | - | - |
| 1778023804 | 11.11° C | 93% | 1024.2 hPa | 0.51 mm | - | - | - |
| 1778022905 | 11.11° C | 93% | 1024.2 hPa | 0.51 mm | - | - | - |
| 1778022004 | 10.56° C | 95% | 1024 hPa | 0.51 mm | - | - | - |
| 1778021105 | 10.56° C | 95% | 1024 hPa | 0.51 mm | - | - | - |
| 1778020205 | 10.56° C | 97% | 1023.5 hPa | 0.51 mm | - | - | - |
| 1778019304 | 10.56° C | 97% | 1023.5 hPa | 0.51 mm | - | - | - |
| 1778018404 | 7.78° C | 97% | 1023.5 hPa | 0.51 mm | - | - | - |
| 1778017505 | 7.78° C | 97% | 1023.5 hPa | 0.51 mm | - | - | - |
| 1778016605 | 7.22° C | 96% | 1023.4 hPa | 0.51 mm | - | - | - |
| 1778015705 | 7.22° C | 96% | 1023.4 hPa | 0.51 mm | - | - | - |
| 1778014805 | 7.78° C | 96% | 1023.4 hPa | 0.51 mm | - | - | - |
| 1778013904 | 7.78° C | 96% | 1023.4 hPa | 0.51 mm | - | - | - |
* Rain since midnight (hover to see other rain measurements)
** Current wind speed in m/s (hover to see current wind gust speed)